首页
METAR-TAF:

METAR-TAF

机场 :

Mammoth Yosemite Airport

Mammoth Lakes, 加利福尼亚州, 美国

纬度: 37-37N, 经度: 118-50W, 海拔: 2173米

当前天气观测

该预报发布于23分钟前的16:15 UTC
风速8节,风向南转西南,有时为15节阵风
温度 24°C
湿度 27%
气压 1027 hPa
能見度: 16.1公里
天空无云

METAR: KMMH 241615Z AUTO 20008G15KT 10SM CLR 24/04 A3032 RMK AO2 T02410044

时间: 09:38 (16:38 UTC)

预报

该预报发布于5小时和18分钟前的11:20 UTC
预报有效从24日的 12点(UTC)到 25日的 12点(UTC)
风速4节,风向多变
能見度: 10公里
天空无云
从 24日的 1800点(UTC)
风速10节,风向南转西南,有时为18节阵风
能見度: 10公里
天空无云
从 24日的 2200点(UTC)
风速14节,风向西,有时为24节阵风
能見度: 10公里
天空无云
从 25日的 0300点(UTC)
风速10节,风向西,有时为20节阵风
能見度: 10公里
多云层高于25000英尺
从 25日的 0500点(UTC)
风速4节,风向西
能見度: 10公里
少量云层高于18000英尺
多云层高于25000英尺

TAF: KMMH 241120Z 2412/2512 VRB04KT P6SM SKC FM241800 20010G18KT P6SM SKC FM242200 26014G24KT P6SM SKC FM250300 27010G20KT P6SM BKN250 FM250500 26004KT P6SM FEW180 BKN250

超过4000个机场的气象观测和天气预报(METAR&TAF报告)。

可查询的气象台以黄色和红色小点在地图上表示。

将鼠标移到小点上方,可查看气象台名称。

然后点击查看天气观测和预报。

如需切换地图:点击带黑十字的绿色按钮放大地图;点击带横线的绿色按钮缩小地图;或者点击绿色箭头查看邻近地区的地图。


METAR-TAF: